createdAt,value
2022-11-09T00:02:16.594Z,48.57
2022-11-09T00:07:21.848Z,46.10
2022-11-09T00:12:27.100Z,52.43
2022-11-09T00:17:32.180Z,48.93
2022-11-09T00:22:37.592Z,50.27
2022-11-09T00:27:44.152Z,48.60
2022-11-09T00:32:49.191Z,51.73
2022-11-09T00:37:55.640Z,55.00
2022-11-09T00:43:00.792Z,53.93
2022-11-09T00:48:06.075Z,52.03
2022-11-09T00:53:11.040Z,49.00
2022-11-09T00:58:16.561Z,46.47
2022-11-09T01:03:22.291Z,47.60
2022-11-09T01:08:27.304Z,50.70
2022-11-09T01:13:32.212Z,45.03
2022-11-09T01:18:38.754Z,45.93
2022-11-09T01:28:49.275Z,47.17
2022-11-09T01:33:54.239Z,48.50
2022-11-09T01:38:59.128Z,45.00
2022-11-09T01:44:07.901Z,44.53
2022-11-09T01:49:22.204Z,45.20
2022-11-09T01:54:30.998Z,45.63
2022-11-09T01:59:39.338Z,46.50
2022-11-09T02:04:50.950Z,46.40
2022-11-09T02:10:14.019Z,47.23
2022-11-09T02:15:20.304Z,46.88
2022-11-09T02:20:26.641Z,47.13
2022-11-09T02:25:32.512Z,48.65
2022-11-09T02:30:38.523Z,48.80
2022-11-09T02:35:43.845Z,48.60
2022-11-09T02:40:53.005Z,48.08
2022-11-09T02:45:58.275Z,48.07
2022-11-09T02:51:03.489Z,48.43
2022-11-09T02:56:09.151Z,48.27
2022-11-09T03:01:14.603Z,48.90
2022-11-09T03:06:20.686Z,47.60
2022-11-09T03:11:25.727Z,48.53
2022-11-09T03:16:31.775Z,48.10
2022-11-09T03:21:36.895Z,48.03
2022-11-09T03:26:42.086Z,48.53
2022-11-09T03:31:47.324Z,48.10
2022-11-09T03:36:52.309Z,47.83
2022-11-09T03:41:57.658Z,48.50
2022-11-09T03:47:02.989Z,47.40
2022-11-09T03:52:08.759Z,48.33
2022-11-09T03:57:13.816Z,47.80
2022-11-09T04:02:18.790Z,47.43
2022-11-09T04:07:24.840Z,47.05
2022-11-09T04:12:30.025Z,47.43
2022-11-09T04:17:35.165Z,46.80
2022-11-09T04:22:40.784Z,46.87
2022-11-09T04:27:45.667Z,46.80
2022-11-09T04:32:51.070Z,46.33
2022-11-09T04:38:01.558Z,47.37
2022-11-09T04:43:08.875Z,47.70
2022-11-09T04:48:14.373Z,47.07
2022-11-09T04:53:20.504Z,46.93
2022-11-09T04:58:26.685Z,47.45
2022-11-09T05:03:31.939Z,47.30
2022-11-09T05:08:37.135Z,47.70
2022-11-09T05:13:43.025Z,46.27
2022-11-09T05:18:49.026Z,46.45
2022-11-09T05:24:00.097Z,46.80
2022-11-09T05:29:10.536Z,45.90
2022-11-09T05:34:15.620Z,46.63
2022-11-09T05:39:20.801Z,46.37
2022-11-09T05:44:25.957Z,45.70
2022-11-09T05:49:32.704Z,45.23
2022-11-09T05:54:37.837Z,45.77
2022-11-09T05:59:42.807Z,45.50
2022-11-09T06:04:49.022Z,46.33
2022-11-09T06:09:54.491Z,46.23
2022-11-09T06:14:59.992Z,45.90
2022-11-09T06:20:05.151Z,46.17
2022-11-09T06:25:10.860Z,45.63
2022-11-09T06:30:16.377Z,46.33
2022-11-09T06:35:21.645Z,46.30
2022-11-09T06:40:27.824Z,46.83
2022-11-09T06:45:33.355Z,47.60
2022-11-09T06:50:39.007Z,48.47
2022-11-09T06:55:49.073Z,48.70
2022-11-09T07:00:51.170Z,50.33
2022-11-09T07:05:56.871Z,50.73
2022-11-09T07:11:07.959Z,50.87
2022-11-09T07:16:14.478Z,49.27
2022-11-09T07:26:24.928Z,48.48
2022-11-09T07:31:32.221Z,48.63
2022-11-09T07:36:37.348Z,48.90
2022-11-09T07:41:42.789Z,50.00
2022-11-09T07:46:53.324Z,49.53
2022-11-09T07:51:58.795Z,48.73
2022-11-09T07:57:03.759Z,49.47
2022-11-09T08:02:11.707Z,49.87
2022-11-09T08:07:16.998Z,49.80
2022-11-09T08:12:22.203Z,47.87
2022-11-09T08:17:27.357Z,49.30
2022-11-09T08:22:32.516Z,49.33
2022-11-09T08:27:39.426Z,49.23
2022-11-09T08:32:46.021Z,48.95
2022-11-09T08:37:52.988Z,49.25
2022-11-09T08:43:07.378Z,49.50
2022-11-09T08:48:14.194Z,50.57
2022-11-09T08:53:20.196Z,50.30
2022-11-09T08:58:25.847Z,49.77
2022-11-09T09:03:31.068Z,48.80
2022-11-09T09:08:36.867Z,50.00
2022-11-09T09:13:43.765Z,49.23
2022-11-09T09:18:50.132Z,48.07
2022-11-09T09:23:56.069Z,48.23
2022-11-09T09:29:00.958Z,48.43
2022-11-09T09:34:06.096Z,50.13
2022-11-09T09:39:11.282Z,49.00
2022-11-09T09:44:33.991Z,48.07
2022-11-09T09:49:42.145Z,48.50
2022-11-09T09:54:53.708Z,50.37
2022-11-09T10:00:02.058Z,48.70
2022-11-09T10:05:13.269Z,49.60
2022-11-09T10:10:34.005Z,51.40
2022-11-09T10:16:05.885Z,51.63
2022-11-09T10:21:19.394Z,54.20
2022-11-09T10:26:40.354Z,52.30
2022-11-09T10:31:48.648Z,53.70
2022-11-09T10:36:56.607Z,50.70
2022-11-09T10:42:02.164Z,51.37
2022-11-09T10:47:10.413Z,53.17
2022-11-09T10:52:34.986Z,53.53
2022-11-09T10:57:43.498Z,54.03
2022-11-09T11:02:50.887Z,53.27
2022-11-09T11:07:56.883Z,55.07
2022-11-09T11:13:07.874Z,53.20
2022-11-09T11:18:16.601Z,53.67
2022-11-09T11:23:24.874Z,55.03
2022-11-09T11:28:39.396Z,53.85
2022-11-09T11:33:45.323Z,53.10
2022-11-09T11:39:28.036Z,54.07
2022-11-09T11:44:52.094Z,53.73
2022-11-09T11:50:02.804Z,53.63
2022-11-09T11:55:27.733Z,54.07
2022-11-09T12:00:36.597Z,53.23
2022-11-09T12:06:13.751Z,54.10
2022-11-09T12:17:04.092Z,52.78
2022-11-09T12:22:16.874Z,52.70
2022-11-09T12:27:32.854Z,53.03
2022-11-09T12:32:56.513Z,52.38
2022-11-09T12:38:07.361Z,51.90
2022-11-09T12:43:22.145Z,52.60
2022-11-09T12:48:30.932Z,52.83
2022-11-09T12:53:37.937Z,52.37
2022-11-09T12:58:43.616Z,53.67
2022-11-09T13:03:57.219Z,54.87
2022-11-09T13:09:20.058Z,53.73
2022-11-09T13:14:29.147Z,55.73
2022-11-09T13:19:41.087Z,54.60
2022-11-09T13:25:01.440Z,55.33
2022-11-09T13:30:26.535Z,53.00
2022-11-09T13:35:46.389Z,54.00
2022-11-09T13:40:53.242Z,56.70
2022-11-09T13:46:13.331Z,53.40
2022-11-09T13:51:26.801Z,52.38
2022-11-09T13:56:38.349Z,52.90
2022-11-09T14:01:55.552Z,52.50
2022-11-09T14:12:29.117Z,52.20
2022-11-09T14:17:43.511Z,55.70
2022-11-09T14:22:49.231Z,54.00
2022-11-09T14:27:59.090Z,54.37
2022-11-09T14:33:04.180Z,52.93
2022-11-09T14:38:21.822Z,57.27
2022-11-09T14:43:33.885Z,55.20
2022-11-09T14:48:42.039Z,56.30
2022-11-09T14:53:46.777Z,55.20
2022-11-09T14:58:52.363Z,56.93
2022-11-09T15:04:19.192Z,55.77
2022-11-09T15:14:36.132Z,58.00
2022-11-09T15:19:49.859Z,57.13
2022-11-09T15:24:55.945Z,59.13
2022-11-09T15:30:03.858Z,53.58
2022-11-09T15:35:17.902Z,53.80
2022-11-09T15:40:25.671Z,56.23
2022-11-09T15:45:33.462Z,54.10
2022-11-09T15:50:43.243Z,54.57
2022-11-09T15:55:49.280Z,54.00
2022-11-09T16:00:56.285Z,55.23
2022-11-09T16:11:07.892Z,60.55
2022-11-09T16:16:15.352Z,54.85
2022-11-09T16:21:20.891Z,60.67
2022-11-09T16:26:26.406Z,59.10
2022-11-09T16:31:50.947Z,58.87
2022-11-09T16:36:48.063Z,62.83
2022-11-09T16:41:52.526Z,55.13
2022-11-09T16:46:58.779Z,55.80
2022-11-09T16:52:03.714Z,54.27
2022-11-09T16:57:08.818Z,53.63
2022-11-09T17:02:14.607Z,59.70
2022-11-09T17:07:21.411Z,60.08
2022-11-09T17:12:28.669Z,52.85
2022-11-09T17:17:34.129Z,55.07
2022-11-09T17:22:45.744Z,53.47
2022-11-09T17:27:48.818Z,53.53
2022-11-09T17:32:55.121Z,54.93
2022-11-09T17:38:01.216Z,59.27
2022-11-09T17:43:07.378Z,67.80
2022-11-09T17:53:19.427Z,56.57
2022-11-09T17:58:26.028Z,92.60
2022-11-09T18:03:36.601Z,66.50
2022-11-09T18:08:42.645Z,60.97
2022-11-09T18:18:54.945Z,62.60
2022-11-09T18:24:00.861Z,65.15
2022-11-09T18:29:05.809Z,52.50
2022-11-09T18:34:12.467Z,78.80
2022-11-09T18:39:17.640Z,54.77
2022-11-09T18:44:22.853Z,59.77
2022-11-09T18:49:28.554Z,63.00
2022-11-09T18:54:35.118Z,66.20
2022-11-09T18:59:42.614Z,63.20
2022-11-09T19:04:48.611Z,58.13
2022-11-09T19:09:56.478Z,58.87
2022-11-09T19:15:04.557Z,63.50
2022-11-09T19:20:10.037Z,66.63
2022-11-09T19:25:15.747Z,66.43
2022-11-09T19:30:23.515Z,62.87
2022-11-09T19:35:33.508Z,81.00
2022-11-09T19:40:39.800Z,106.30
2022-11-09T19:45:44.339Z,89.50
2022-11-09T19:50:51.603Z,84.07
2022-11-09T19:56:01.247Z,87.35
2022-11-09T20:01:10.665Z,101.33
2022-11-09T20:06:16.163Z,101.70
2022-11-09T20:11:42.555Z,68.40
2022-11-09T20:16:49.270Z,52.80
2022-11-09T20:21:54.648Z,79.73
2022-11-09T20:26:59.733Z,84.10
2022-11-09T20:32:04.797Z,71.43
2022-11-09T20:37:09.946Z,68.80
2022-11-09T20:42:15.283Z,60.67
2022-11-09T20:47:41.907Z,59.70
2022-11-09T20:52:30.031Z,71.40
2022-11-09T20:57:36.219Z,77.80
2022-11-09T21:02:43.090Z,73.13
2022-11-09T21:07:48.403Z,59.70
2022-11-09T21:12:57.240Z,54.57
2022-11-09T21:18:02.807Z,53.40
2022-11-09T21:23:14.517Z,51.43
2022-11-09T21:28:37.686Z,52.10
2022-11-09T21:33:42.804Z,51.83
2022-11-09T21:38:49.141Z,52.57
2022-11-09T21:43:55.863Z,53.27
2022-11-09T21:54:08.669Z,51.30
2022-11-09T21:59:13.688Z,52.90
2022-11-09T22:04:19.053Z,54.20
2022-11-09T22:09:24.390Z,55.43
2022-11-09T22:14:47.925Z,54.03
2022-11-09T22:20:11.113Z,53.70
2022-11-09T22:25:16.927Z,55.03
2022-11-09T22:30:22.225Z,54.23
2022-11-09T22:35:29.239Z,54.13
2022-11-09T22:40:34.809Z,54.53
2022-11-09T22:45:42.977Z,53.37
2022-11-09T22:50:50.584Z,56.67
2022-11-09T22:55:58.507Z,55.60
2022-11-09T23:06:17.432Z,54.45
2022-11-09T23:11:25.345Z,53.47
2022-11-09T23:16:30.782Z,52.23
2022-11-09T23:21:38.085Z,51.90
2022-11-09T23:26:43.369Z,53.60
2022-11-09T23:31:49.308Z,53.35
2022-11-09T23:36:54.532Z,52.67
2022-11-09T23:41:59.647Z,50.83
2022-11-09T23:47:04.935Z,51.17
2022-11-09T23:52:11.567Z,65.87
2022-11-09T23:57:19.645Z,61.33
